createdAt,value
2022-12-22T00:01:49.637Z,7.41
2022-12-22T00:07:10.233Z,7.44
2022-12-22T00:12:32.301Z,7.57
2022-12-22T00:17:52.359Z,7.43
2022-12-22T00:23:13.172Z,7.45
2022-12-22T00:28:34.679Z,7.48
2022-12-22T00:33:54.874Z,7.53
2022-12-22T00:39:15.510Z,7.51
2022-12-22T00:44:37.042Z,7.50
2022-12-22T00:49:59.645Z,7.58
2022-12-22T00:55:19.799Z,7.60
2022-12-22T01:00:41.583Z,7.59
2022-12-22T01:06:01.641Z,7.50
2022-12-22T01:11:22.072Z,7.62
2022-12-22T01:16:43.763Z,7.58
2022-12-22T01:22:03.867Z,7.59
2022-12-22T01:27:24.020Z,7.62
2022-12-22T01:32:45.792Z,7.65
2022-12-22T01:38:06.281Z,7.62
2022-12-22T01:43:37.797Z,7.69
2022-12-22T01:48:59.241Z,7.82
2022-12-22T01:54:19.686Z,7.70
2022-12-22T01:59:40.173Z,7.70
2022-12-22T02:05:04.271Z,7.60
2022-12-22T02:10:37.056Z,7.71
2022-12-22T02:16:04.223Z,7.71
2022-12-22T02:21:28.677Z,7.66
2022-12-22T02:26:52.397Z,7.61
2022-12-22T02:32:12.855Z,7.63
2022-12-22T02:37:37.702Z,7.71
2022-12-22T02:43:04.326Z,7.73
2022-12-22T02:48:28.583Z,7.71
2022-12-22T02:53:49.487Z,7.71
2022-12-22T02:59:11.787Z,7.77
2022-12-22T03:04:32.082Z,7.77
2022-12-22T03:09:52.588Z,7.75
2022-12-22T03:15:14.346Z,7.87
2022-12-22T03:20:34.815Z,7.73
2022-12-22T03:25:53.871Z,7.78
2022-12-22T03:30:59.659Z,7.90
2022-12-22T03:36:02.521Z,7.85
2022-12-22T03:41:05.770Z,7.84
2022-12-22T03:46:41.176Z,7.91
2022-12-22T03:51:45.623Z,7.89
2022-12-22T03:56:49.173Z,7.86
2022-12-22T04:01:54.967Z,7.89
2022-12-22T04:06:57.880Z,7.89
2022-12-22T04:12:17.977Z,7.88
2022-12-22T04:17:22.027Z,7.88
2022-12-22T04:22:25.271Z,7.86
2022-12-22T04:27:28.012Z,7.92
2022-12-22T04:32:32.123Z,7.90
2022-12-22T04:37:35.076Z,7.93
2022-12-22T04:42:37.866Z,7.93
2022-12-22T04:47:41.994Z,7.93
2022-12-22T04:52:44.757Z,7.93
2022-12-22T04:57:47.514Z,7.93
2022-12-22T05:02:53.485Z,7.84
2022-12-22T05:07:56.408Z,7.93
2022-12-22T05:12:59.370Z,7.93
2022-12-22T05:18:04.351Z,7.93
2022-12-22T05:23:07.080Z,7.98
2022-12-22T05:28:09.843Z,7.98
2022-12-22T05:33:13.957Z,7.97
2022-12-22T05:38:16.821Z,7.95
2022-12-22T05:43:19.582Z,7.95
2022-12-22T05:48:29.474Z,7.94
2022-12-22T05:53:35.141Z,7.93
2022-12-22T05:58:39.700Z,7.88
2022-12-22T06:03:53.351Z,7.85
2022-12-22T06:09:00.514Z,7.92
2022-12-22T06:14:03.337Z,7.89
2022-12-22T06:19:07.634Z,7.91
2022-12-22T06:24:10.670Z,7.92
2022-12-22T06:29:14.489Z,7.92
2022-12-22T06:34:18.800Z,7.88
2022-12-22T06:39:21.739Z,7.86
2022-12-22T06:44:24.486Z,7.86
2022-12-22T06:49:28.587Z,7.87
2022-12-22T06:54:31.322Z,7.86
2022-12-22T06:59:34.137Z,7.88
2022-12-22T07:04:38.265Z,7.68
2022-12-22T07:09:40.990Z,7.74
2022-12-22T07:14:43.728Z,7.78
2022-12-22T07:19:47.817Z,7.73
2022-12-22T07:24:51.212Z,7.75
2022-12-22T07:29:53.911Z,7.71
2022-12-22T07:35:04.765Z,7.68
2022-12-22T07:40:09.645Z,7.97
2022-12-22T07:45:12.754Z,7.90
2022-12-22T07:50:28.743Z,7.69
2022-12-22T07:55:33.431Z,7.78
2022-12-22T08:00:36.143Z,7.81
2022-12-22T08:05:40.927Z,7.75
2022-12-22T08:10:43.660Z,7.83
2022-12-22T08:15:46.468Z,7.78
2022-12-22T08:20:53.678Z,7.74
2022-12-22T08:25:59.918Z,7.78
2022-12-22T08:31:02.496Z,7.85
2022-12-22T08:36:08.558Z,7.90
2022-12-22T08:41:14.713Z,7.93
2022-12-22T08:46:17.477Z,7.92
2022-12-22T08:51:21.602Z,7.98
2022-12-22T08:56:24.365Z,7.97
2022-12-22T09:01:27.312Z,7.96
2022-12-22T09:06:40.195Z,8.19
2022-12-22T09:11:44.084Z,8.34
2022-12-22T09:16:47.027Z,8.40
2022-12-22T09:21:51.235Z,8.51
2022-12-22T09:26:54.114Z,8.55
2022-12-22T09:31:56.930Z,8.67
2022-12-22T09:37:01.041Z,8.69
2022-12-22T09:42:03.778Z,8.71
2022-12-22T09:47:14.113Z,8.74
2022-12-22T09:52:28.025Z,8.76
2022-12-22T09:57:33.340Z,8.80
2022-12-22T10:02:45.228Z,8.80
2022-12-22T10:07:49.579Z,8.81
2022-12-22T10:12:56.119Z,8.86
2022-12-22T10:18:11.520Z,8.85
2022-12-22T10:23:18.670Z,8.79
2022-12-22T10:28:24.966Z,8.81
2022-12-22T10:33:32.865Z,8.83
2022-12-22T10:38:38.510Z,8.80
2022-12-22T10:43:47.153Z,8.81
2022-12-22T10:48:49.997Z,8.85
2022-12-22T10:53:55.395Z,8.84
2022-12-22T10:59:11.299Z,8.85
2022-12-22T11:04:17.747Z,8.84
2022-12-22T11:09:33.617Z,8.85
2022-12-22T11:14:48.206Z,8.81
2022-12-22T11:19:59.870Z,8.73
2022-12-22T11:25:20.536Z,8.70
2022-12-22T11:30:28.121Z,8.67
2022-12-22T11:35:43.585Z,8.69
2022-12-22T11:40:49.713Z,8.67
2022-12-22T11:46:02.019Z,8.72
2022-12-22T11:51:12.498Z,8.67
2022-12-22T11:56:23.702Z,8.73
2022-12-22T12:01:51.755Z,8.87
2022-12-22T12:07:06.867Z,8.87
2022-12-22T12:12:16.445Z,8.87
2022-12-22T12:17:25.233Z,8.92
2022-12-22T12:22:36.434Z,8.83
2022-12-22T12:27:51.427Z,8.77
2022-12-22T12:32:57.648Z,8.86
2022-12-22T12:38:04.264Z,8.93
2022-12-22T12:43:16.035Z,8.80
2022-12-22T12:48:41.555Z,8.70
2022-12-22T12:54:24.156Z,8.74
2022-12-22T12:59:50.272Z,8.92
2022-12-22T13:05:36.488Z,8.94
2022-12-22T13:10:42.401Z,9.06
2022-12-22T13:15:46.622Z,9.13
2022-12-22T13:20:55.864Z,9.11
2022-12-22T13:26:06.738Z,9.06
2022-12-22T13:31:17.613Z,9.22
2022-12-22T13:36:23.885Z,9.03
2022-12-22T13:41:27.648Z,8.92
2022-12-22T13:46:34.203Z,8.90
2022-12-22T13:51:37.795Z,8.81
2022-12-22T13:56:42.527Z,8.73
2022-12-22T14:01:51.636Z,8.63
2022-12-22T14:06:55.690Z,8.51
2022-12-22T14:12:05.158Z,8.54
2022-12-22T14:17:19.322Z,8.48
2022-12-22T14:22:24.385Z,8.44
2022-12-22T14:27:32.622Z,8.35
2022-12-22T14:32:39.939Z,8.16
2022-12-22T14:37:42.732Z,8.23
2022-12-22T14:42:45.674Z,8.17
2022-12-22T14:47:49.930Z,8.17
2022-12-22T14:52:54.809Z,8.14
2022-12-22T14:58:00.399Z,8.09
2022-12-22T15:03:06.384Z,8.01
2022-12-22T15:08:38.683Z,8.02
2022-12-22T15:13:41.812Z,8.06
2022-12-22T15:18:46.351Z,7.96
2022-12-22T15:23:49.191Z,8.00
2022-12-22T15:28:52.016Z,7.96
2022-12-22T15:33:58.582Z,7.91
2022-12-22T15:39:01.313Z,7.87
2022-12-22T15:44:04.037Z,7.77
2022-12-22T15:49:13.952Z,7.67
2022-12-22T15:54:17.385Z,7.54
2022-12-22T15:59:22.394Z,7.44
2022-12-22T16:04:28.233Z,7.41
2022-12-22T16:09:38.115Z,7.37
2022-12-22T16:14:48.007Z,7.24
2022-12-22T16:19:54.088Z,7.22
2022-12-22T16:24:56.900Z,7.13
2022-12-22T16:29:59.950Z,7.11
2022-12-22T16:35:15.710Z,7.13
2022-12-22T16:40:19.542Z,7.12
2022-12-22T16:45:23.923Z,7.04
2022-12-22T16:50:32.802Z,6.94
2022-12-22T16:55:35.988Z,7.06
2022-12-22T17:00:39.398Z,7.09
2022-12-22T17:05:45.537Z,7.00
2022-12-22T17:10:49.909Z,7.06
2022-12-22T17:15:52.852Z,7.06
2022-12-22T17:20:58.233Z,7.12
2022-12-22T17:26:02.964Z,7.05
2022-12-22T17:31:06.022Z,7.09
2022-12-22T17:36:18.656Z,7.11
2022-12-22T17:41:21.720Z,7.14
2022-12-22T17:46:24.500Z,7.09
2022-12-22T17:51:29.577Z,7.06
2022-12-22T17:56:32.750Z,7.03
2022-12-22T18:01:36.995Z,7.03
2022-12-22T18:06:41.882Z,7.05
2022-12-22T18:11:46.217Z,7.08
2022-12-22T18:16:49.302Z,7.05
2022-12-22T18:21:53.570Z,7.08
2022-12-22T18:26:56.290Z,7.05
2022-12-22T18:31:59.556Z,7.11
2022-12-22T18:37:04.058Z,7.03
2022-12-22T18:42:18.233Z,7.12
2022-12-22T18:47:21.094Z,7.01
2022-12-22T18:52:26.364Z,7.03
2022-12-22T18:57:33.913Z,7.07
2022-12-22T19:02:36.770Z,7.04
2022-12-22T19:07:43.577Z,6.98
2022-12-22T19:12:53.417Z,6.96
2022-12-22T19:17:56.376Z,6.97
2022-12-22T19:23:01.198Z,7.00
2022-12-22T19:28:07.807Z,7.02
2022-12-22T19:33:18.234Z,7.06
2022-12-22T19:38:25.492Z,7.10
2022-12-22T19:43:28.786Z,7.11
2022-12-22T19:48:31.546Z,7.09
2022-12-22T19:53:36.193Z,7.13
2022-12-22T19:58:40.933Z,7.19
2022-12-22T20:03:43.785Z,7.21
2022-12-22T20:08:48.092Z,7.26
2022-12-22T20:13:50.870Z,7.28
2022-12-22T20:18:53.657Z,7.26
2022-12-22T20:23:59.672Z,7.27
2022-12-22T20:29:02.525Z,7.29
2022-12-22T20:34:06.759Z,7.37
2022-12-22T20:39:16.323Z,7.41
2022-12-22T20:44:21.319Z,7.44
2022-12-22T20:49:24.150Z,7.48
2022-12-22T20:54:28.354Z,7.51
2022-12-22T20:59:31.161Z,7.61
2022-12-22T21:04:33.940Z,7.57
2022-12-22T21:09:39.208Z,7.83
2022-12-22T21:14:42.034Z,7.82
2022-12-22T21:19:44.961Z,7.77
2022-12-22T21:24:49.100Z,7.85
2022-12-22T21:29:51.854Z,7.78
2022-12-22T21:34:54.636Z,7.91
2022-12-22T21:39:58.769Z,7.90
2022-12-22T21:45:01.660Z,8.02
2022-12-22T21:50:05.028Z,8.03
2022-12-22T21:55:10.072Z,8.08
2022-12-22T22:00:14.912Z,8.19
2022-12-22T22:05:26.370Z,8.11
2022-12-22T22:10:32.104Z,8.25
2022-12-22T22:15:35.551Z,8.20
2022-12-22T22:20:38.460Z,8.11
2022-12-22T22:25:42.764Z,8.27
2022-12-22T22:30:45.716Z,8.27
2022-12-22T22:35:48.513Z,8.32
2022-12-22T22:40:52.683Z,8.36
2022-12-22T22:45:55.587Z,8.49
2022-12-22T22:50:58.471Z,8.45
2022-12-22T22:56:03.871Z,8.52
2022-12-22T23:01:07.548Z,8.58
2022-12-22T23:06:13.210Z,8.56
2022-12-22T23:11:18.009Z,8.55
2022-12-22T23:16:21.587Z,8.64
2022-12-22T23:21:25.005Z,8.55
2022-12-22T23:26:29.235Z,8.60
2022-12-22T23:31:32.482Z,8.58
2022-12-22T23:36:35.396Z,8.65
2022-12-22T23:41:39.742Z,8.61
2022-12-22T23:46:42.924Z,8.59
2022-12-22T23:51:45.814Z,8.68
2022-12-22T23:56:49.960Z,8.55
